createdAt,value
2017-08-31T00:01:23.468Z,95741.97
2017-08-31T00:03:51.705Z,95734.09
2017-08-31T00:06:19.242Z,95727.05
2017-08-31T00:08:46.793Z,95727.94
2017-08-31T00:11:14.359Z,95724.10
2017-08-31T00:13:41.937Z,95725.06
2017-08-31T00:16:09.516Z,95724.00
2017-08-31T00:18:37.029Z,95734.55
2017-08-31T00:21:04.542Z,95728.68
2017-08-31T00:23:32.082Z,95729.07
2017-08-31T00:25:59.619Z,95726.25
2017-08-31T00:28:27.170Z,95720.62
2017-08-31T00:30:54.776Z,95728.27
2017-08-31T00:33:22.390Z,95728.25
2017-08-31T00:35:50.202Z,95722.66
2017-08-31T00:38:17.803Z,95724.98
2017-08-31T00:40:45.343Z,95736.46
2017-08-31T00:43:12.911Z,95732.73
2017-08-31T00:45:40.511Z,95738.08
2017-08-31T00:48:08.041Z,95745.30
2017-08-31T00:50:35.686Z,95738.06
2017-08-31T00:53:03.268Z,95735.64
2017-08-31T00:55:31.015Z,95739.41
2017-08-31T00:57:58.549Z,95739.38
2017-08-31T01:00:26.215Z,95737.33
2017-08-31T01:02:53.952Z,95731.81
2017-08-31T01:05:21.570Z,95739.40
2017-08-31T01:07:49.143Z,95735.91
2017-08-31T01:10:16.929Z,95737.66
2017-08-31T01:12:44.672Z,95731.98
2017-08-31T01:15:12.461Z,95733.16
2017-08-31T01:17:40.254Z,95734.63
2017-08-31T01:20:07.815Z,95729.78
2017-08-31T01:22:35.452Z,95740.28
2017-08-31T01:25:03.009Z,95737.50
2017-08-31T01:27:30.791Z,95738.13
2017-08-31T01:29:58.388Z,95734.97
2017-08-31T01:32:26.004Z,95731.23
2017-08-31T01:34:53.601Z,95740.91
2017-08-31T01:37:21.415Z,95735.17
2017-08-31T01:39:49.069Z,95734.82
2017-08-31T01:42:16.941Z,95732.08
2017-08-31T01:44:44.565Z,95736.19
2017-08-31T01:47:12.163Z,95731.92
2017-08-31T01:49:39.705Z,95728.98
2017-08-31T01:52:07.500Z,95729.74
2017-08-31T01:54:35.096Z,95731.76
2017-08-31T01:57:02.650Z,95735.36
2017-08-31T01:59:30.200Z,95734.51
2017-08-31T02:01:58.387Z,95727.87
2017-08-31T02:04:26.135Z,95736.59
2017-08-31T02:06:53.673Z,95731.70
2017-08-31T02:09:21.216Z,95732.61
2017-08-31T02:11:48.763Z,95729.78
2017-08-31T02:14:16.310Z,95735.38
2017-08-31T02:16:43.884Z,95739.63
2017-08-31T02:19:11.410Z,95743.83
2017-08-31T02:21:39.000Z,95741.25
2017-08-31T02:24:06.579Z,95737.50
2017-08-31T02:26:34.108Z,95739.28
2017-08-31T02:29:01.646Z,95745.45
2017-08-31T02:31:29.337Z,95748.25
2017-08-31T02:33:57.085Z,95746.75
2017-08-31T02:36:24.681Z,95747.74
2017-08-31T02:38:52.268Z,95750.28
2017-08-31T02:41:20.033Z,95749.63
2017-08-31T02:43:47.776Z,95757.69
2017-08-31T02:46:15.370Z,95765.77
2017-08-31T02:48:42.894Z,95753.02
2017-08-31T02:51:10.422Z,95755.16
2017-08-31T02:53:37.996Z,95754.08
2017-08-31T02:56:05.512Z,95759.03
2017-08-31T02:58:33.262Z,95758.45
2017-08-31T03:01:00.867Z,95752.95
2017-08-31T03:03:29.085Z,95751.62
2017-08-31T03:05:56.817Z,95751.19
2017-08-31T03:08:24.455Z,95755.05
2017-08-31T03:10:52.002Z,95760.20
2017-08-31T03:13:19.614Z,95759.88
2017-08-31T03:15:47.191Z,95761.90
2017-08-31T03:18:14.765Z,95763.48
2017-08-31T03:20:42.508Z,95769.36
2017-08-31T03:23:10.059Z,95764.54
2017-08-31T03:25:38.404Z,95764.48
2017-08-31T03:28:06.129Z,95763.09
2017-08-31T03:30:33.734Z,95774.76
2017-08-31T03:33:01.265Z,95767.72
2017-08-31T03:35:28.821Z,95770.27
2017-08-31T03:37:56.357Z,95765.91
2017-08-31T03:40:23.939Z,95766.24
2017-08-31T03:42:51.688Z,95772.48
2017-08-31T03:45:19.291Z,95769.61
2017-08-31T03:47:47.048Z,95773.77
2017-08-31T03:50:14.572Z,95771.55
2017-08-31T03:52:42.126Z,95776.87
2017-08-31T03:55:09.668Z,95781.08
2017-08-31T03:57:37.457Z,95780.20
2017-08-31T04:00:07.081Z,95778.60
2017-08-31T04:02:34.878Z,95786.33
2017-08-31T04:05:02.447Z,95793.42
2017-08-31T04:07:30.001Z,95797.22
2017-08-31T04:09:57.557Z,95793.92
2017-08-31T04:12:25.091Z,95794.50
2017-08-31T04:14:52.687Z,95801.61
2017-08-31T04:17:20.444Z,95803.19
2017-08-31T04:19:48.348Z,95800.05
2017-08-31T04:22:15.931Z,95801.02
2017-08-31T04:24:43.496Z,95804.58
2017-08-31T04:27:11.239Z,95805.70
2017-08-31T04:29:39.058Z,95801.53
2017-08-31T04:32:06.700Z,95799.50
2017-08-31T04:34:35.287Z,95801.46
2017-08-31T04:37:02.922Z,95795.13
2017-08-31T04:39:30.598Z,95803.98
2017-08-31T04:41:58.354Z,95807.98
2017-08-31T04:44:26.019Z,95796.92
2017-08-31T04:46:53.600Z,95796.58
2017-08-31T04:49:21.179Z,95792.59
2017-08-31T04:51:48.750Z,95800.25
2017-08-31T04:54:16.331Z,95797.68
2017-08-31T04:56:44.081Z,95801.73
2017-08-31T04:59:11.607Z,95798.30
2017-08-31T05:01:39.258Z,95795.86
2017-08-31T05:04:07.016Z,95804.41
2017-08-31T05:06:34.608Z,95811.13
2017-08-31T05:09:02.223Z,95808.64
2017-08-31T05:11:29.788Z,95803.27
2017-08-31T05:13:57.322Z,95803.38
2017-08-31T05:16:24.945Z,95805.58
2017-08-31T05:18:52.504Z,95805.01
2017-08-31T05:21:20.277Z,95807.17
2017-08-31T05:23:48.070Z,95804.80
2017-08-31T05:26:15.597Z,95792.78
2017-08-31T05:28:43.409Z,95791.84
2017-08-31T05:31:10.977Z,95786.44
2017-08-31T05:33:38.560Z,95787.13
2017-08-31T05:36:06.087Z,95794.03
2017-08-31T05:38:33.708Z,95796.74
2017-08-31T05:41:01.251Z,95797.25
2017-08-31T05:43:28.830Z,95787.42
2017-08-31T05:45:56.436Z,95797.81
2017-08-31T05:48:24.009Z,95795.30
2017-08-31T05:50:51.547Z,95797.70
2017-08-31T05:53:19.176Z,95792.59
2017-08-31T05:55:46.831Z,95792.21
2017-08-31T05:58:14.368Z,95799.55
2017-08-31T06:00:42.029Z,95801.05
2017-08-31T06:03:09.597Z,95799.30
2017-08-31T06:05:37.454Z,95803.58
2017-08-31T06:08:05.090Z,95802.07
2017-08-31T06:10:32.975Z,95813.55
2017-08-31T06:13:00.517Z,95806.46
2017-08-31T06:15:28.135Z,95810.06
2017-08-31T06:17:55.714Z,95816.88
2017-08-31T06:20:23.518Z,95813.02
2017-08-31T06:22:51.128Z,95809.34
2017-08-31T06:25:18.698Z,95816.61
2017-08-31T06:27:46.265Z,95809.64
2017-08-31T06:30:13.855Z,95810.96
2017-08-31T06:32:41.396Z,95815.23
2017-08-31T06:35:09.480Z,95812.19
2017-08-31T06:37:37.146Z,95816.27
2017-08-31T06:40:04.719Z,95817.72
2017-08-31T06:42:33.731Z,95818.30
2017-08-31T06:45:02.389Z,95817.51
2017-08-31T06:47:29.972Z,95824.97
2017-08-31T06:49:57.575Z,95820.86
2017-08-31T06:52:25.154Z,95819.50
2017-08-31T06:54:52.731Z,95815.28
2017-08-31T06:57:21.088Z,95821.06
2017-08-31T06:59:48.677Z,95816.88
2017-08-31T07:02:16.276Z,95823.53
2017-08-31T07:04:44.347Z,95828.00
2017-08-31T07:07:12.001Z,95832.20
2017-08-31T07:09:39.586Z,95832.19
2017-08-31T07:12:07.152Z,95821.80
2017-08-31T07:14:34.748Z,95825.53
2017-08-31T07:17:02.332Z,95822.92
2017-08-31T07:19:29.917Z,95827.17
2017-08-31T07:21:57.568Z,95813.38
2017-08-31T07:24:25.158Z,95820.96
2017-08-31T07:26:52.747Z,95824.22
2017-08-31T07:29:20.298Z,95816.60
2017-08-31T07:31:48.731Z,95814.67
2017-08-31T07:34:16.479Z,95807.32
2017-08-31T07:36:44.108Z,95803.45
2017-08-31T07:39:11.807Z,95809.27
2017-08-31T07:41:39.467Z,95799.20
2017-08-31T07:44:07.030Z,95799.09
2017-08-31T07:46:34.615Z,95792.30
2017-08-31T07:49:03.026Z,95792.73
2017-08-31T07:51:30.610Z,95787.26
2017-08-31T07:53:58.193Z,95789.22
2017-08-31T07:56:25.822Z,95786.36
2017-08-31T07:59:14.685Z,95781.38
2017-08-31T08:01:42.353Z,95781.03
2017-08-31T08:04:09.922Z,95786.64
2017-08-31T08:06:41.060Z,95780.43
2017-08-31T08:09:08.727Z,95780.41
2017-08-31T08:11:46.377Z,95783.72
2017-08-31T08:14:13.917Z,95788.19
2017-08-31T08:16:42.311Z,95783.98
2017-08-31T08:19:10.795Z,95778.66
2017-08-31T08:21:38.657Z,95788.91
2017-08-31T08:24:06.300Z,95781.75
2017-08-31T08:26:34.118Z,95779.27
2017-08-31T08:29:01.713Z,95784.29
2017-08-31T08:31:29.280Z,95789.28
2017-08-31T08:33:56.884Z,95781.82
2017-08-31T08:36:24.479Z,95778.22
2017-08-31T08:38:52.119Z,95773.91
2017-08-31T08:41:19.929Z,95780.00
2017-08-31T08:43:47.521Z,95771.91
2017-08-31T08:46:15.151Z,95768.97
2017-08-31T08:48:42.680Z,95765.03
2017-08-31T08:51:10.508Z,95757.23
2017-08-31T08:53:38.217Z,95756.57
2017-08-31T08:56:05.765Z,95757.80
2017-08-31T08:58:33.580Z,95755.36
2017-08-31T09:01:01.174Z,95749.81
2017-08-31T09:03:28.725Z,95755.35
2017-08-31T09:05:56.281Z,95757.67
2017-08-31T09:08:23.945Z,95749.92
2017-08-31T09:10:51.530Z,95751.45
2017-08-31T09:13:19.097Z,95746.11
2017-08-31T09:15:46.879Z,95748.94
2017-08-31T09:18:14.633Z,95742.03
2017-08-31T09:20:42.178Z,95739.27
2017-08-31T09:23:09.753Z,95739.89
2017-08-31T09:25:37.296Z,95740.50
2017-08-31T09:28:04.875Z,95729.57
2017-08-31T09:30:32.491Z,95730.41
2017-08-31T09:33:00.068Z,95718.09
2017-08-31T09:35:27.731Z,95723.08
2017-08-31T09:37:55.368Z,95721.06
2017-08-31T09:40:23.367Z,95722.25
2017-08-31T09:42:51.153Z,95714.27
2017-08-31T09:45:18.740Z,95708.52
2017-08-31T09:47:46.322Z,95706.03
2017-08-31T09:50:13.881Z,95712.66
2017-08-31T09:52:41.461Z,95709.98
2017-08-31T09:55:09.007Z,95699.65
2017-08-31T09:57:37.161Z,95700.12
2017-08-31T10:00:06.409Z,95696.16
2017-08-31T10:02:33.987Z,95698.40
2017-08-31T10:05:01.519Z,95693.92
2017-08-31T10:07:29.101Z,95687.43
2017-08-31T10:09:56.670Z,95689.64
2017-08-31T10:12:24.203Z,95693.53
2017-08-31T10:14:52.562Z,95674.91
2017-08-31T10:17:20.445Z,95678.36
2017-08-31T10:19:48.194Z,95675.67
2017-08-31T10:22:15.817Z,95673.48
2017-08-31T10:24:43.634Z,95671.74
2017-08-31T10:27:11.392Z,95670.32
2017-08-31T10:29:39.037Z,95677.89
2017-08-31T10:32:06.654Z,95666.23
2017-08-31T10:34:34.224Z,95669.48
2017-08-31T10:37:02.774Z,95669.69
2017-08-31T10:39:30.399Z,95660.24
2017-08-31T10:41:57.947Z,95660.85
2017-08-31T10:44:25.705Z,95658.66
2017-08-31T10:46:53.261Z,95655.11
2017-08-31T10:49:20.927Z,95641.48
2017-08-31T10:51:48.791Z,95644.75
2017-08-31T10:54:16.444Z,95636.40
2017-08-31T10:56:44.052Z,95633.89
2017-08-31T10:59:11.683Z,95631.95
2017-08-31T11:01:39.324Z,95623.52
2017-08-31T11:04:07.197Z,95630.37
2017-08-31T11:06:34.777Z,95618.94
2017-08-31T11:09:02.393Z,95616.61
2017-08-31T11:11:29.951Z,95615.48
2017-08-31T11:13:57.537Z,95609.05
2017-08-31T11:16:26.874Z,95611.42
2017-08-31T11:18:54.445Z,95613.25
2017-08-31T11:21:24.721Z,95609.55
2017-08-31T11:23:52.296Z,95596.99
2017-08-31T11:26:19.827Z,95585.31
2017-08-31T11:28:47.413Z,95599.77
2017-08-31T11:31:14.961Z,95600.34
2017-08-31T11:33:42.494Z,95588.84
2017-08-31T11:36:10.457Z,95590.20
2017-08-31T11:38:37.927Z,95588.72
2017-08-31T11:41:05.429Z,95584.81
2017-08-31T11:43:33.194Z,95576.41
2017-08-31T11:46:01.013Z,95581.50
2017-08-31T11:48:28.746Z,95570.42
2017-08-31T11:50:56.268Z,95564.75
2017-08-31T11:53:23.849Z,95566.98
2017-08-31T11:55:51.407Z,95562.59
2017-08-31T11:58:19.160Z,95557.13
2017-08-31T12:00:47.663Z,95565.30
2017-08-31T12:03:15.435Z,95564.06
2017-08-31T12:05:43.217Z,95558.48
2017-08-31T12:08:10.829Z,95554.44
2017-08-31T12:13:20.312Z,95552.01
2017-08-31T12:15:48.096Z,95546.62
2017-08-31T12:18:15.868Z,95539.42
2017-08-31T12:20:43.441Z,95539.16
2017-08-31T12:23:11.023Z,95534.14
2017-08-31T12:25:38.608Z,95527.52
2017-08-31T12:28:06.189Z,95527.30
2017-08-31T12:30:34.508Z,95523.59
2017-08-31T12:33:02.077Z,95510.84
2017-08-31T12:35:29.667Z,95516.27
2017-08-31T12:37:57.238Z,95517.75
2017-08-31T12:40:25.016Z,95519.45
2017-08-31T12:42:52.618Z,95514.21
2017-08-31T12:45:20.204Z,95513.17
2017-08-31T12:47:48.141Z,95517.03
2017-08-31T12:50:15.727Z,95505.41
2017-08-31T12:52:43.287Z,95508.84
2017-08-31T12:55:10.895Z,95510.55
2017-08-31T12:57:38.653Z,95503.75
2017-08-31T13:00:07.681Z,95497.20
2017-08-31T13:02:35.282Z,95494.50
2017-08-31T13:05:02.873Z,95509.27
2017-08-31T13:07:30.452Z,95492.86
2017-08-31T13:09:59.027Z,95490.69
2017-08-31T13:12:27.238Z,95490.66
2017-08-31T13:14:55.551Z,95490.73
2017-08-31T13:17:23.108Z,95493.89
2017-08-31T13:19:50.635Z,95492.61
2017-08-31T13:22:18.513Z,95495.83
2017-08-31T13:24:46.251Z,95497.58
2017-08-31T13:27:15.397Z,95488.91
2017-08-31T13:29:45.231Z,95481.30
2017-08-31T13:32:12.860Z,95478.16
2017-08-31T13:34:40.733Z,95480.86
2017-08-31T13:37:09.243Z,95476.85
2017-08-31T13:39:36.892Z,95471.52
2017-08-31T13:42:04.414Z,95472.59
2017-08-31T13:44:31.961Z,95468.23
2017-08-31T13:46:59.510Z,95455.94
2017-08-31T13:49:28.085Z,95455.98
2017-08-31T13:51:57.375Z,95459.91
2017-08-31T13:54:25.012Z,95456.69
2017-08-31T13:56:55.624Z,95442.00
2017-08-31T13:59:23.255Z,95451.87
2017-08-31T14:01:52.286Z,95447.66
2017-08-31T14:04:20.083Z,95448.95
2017-08-31T14:06:47.764Z,95444.38
2017-08-31T14:09:15.436Z,95444.21
2017-08-31T14:11:44.063Z,95450.15
2017-08-31T14:14:12.821Z,95440.20
2017-08-31T14:16:40.622Z,95442.80
2017-08-31T14:19:09.176Z,95436.73
2017-08-31T14:21:36.767Z,95434.81
2017-08-31T14:24:04.351Z,95438.98
2017-08-31T14:26:32.943Z,95428.39
2017-08-31T14:29:00.712Z,95425.12
2017-08-31T14:31:28.301Z,95414.35
2017-08-31T14:33:56.674Z,95416.62
2017-08-31T14:36:24.444Z,95417.47
2017-08-31T14:38:52.675Z,95420.37
2017-08-31T14:41:20.209Z,95408.93
2017-08-31T14:43:48.686Z,95404.46
2017-08-31T14:46:16.256Z,95406.05
2017-08-31T14:48:43.900Z,95405.23
2017-08-31T14:51:11.422Z,95402.95
2017-08-31T14:53:39.153Z,95403.17
2017-08-31T14:56:06.992Z,95396.48
2017-08-31T14:58:34.596Z,95393.48
2017-08-31T15:01:02.341Z,95393.55
2017-08-31T15:03:29.934Z,95383.32
2017-08-31T15:05:58.560Z,95383.81
2017-08-31T15:08:26.204Z,95381.48
2017-08-31T15:10:53.769Z,95379.56
2017-08-31T15:13:21.370Z,95381.09
2017-08-31T15:15:48.953Z,95376.80
2017-08-31T15:18:16.594Z,95379.80
2017-08-31T15:20:44.366Z,95378.73
2017-08-31T15:23:12.674Z,95368.53
2017-08-31T15:25:40.814Z,95373.23
2017-08-31T15:28:08.559Z,95377.48
2017-08-31T15:30:36.625Z,95372.80
2017-08-31T15:33:04.232Z,95376.73
2017-08-31T15:35:31.828Z,95370.35
2017-08-31T15:37:59.463Z,95367.42
2017-08-31T15:40:27.095Z,95368.75
2017-08-31T15:42:54.628Z,95365.75
2017-08-31T15:45:22.529Z,95371.10
2017-08-31T15:47:50.077Z,95367.11
2017-08-31T15:50:18.446Z,95372.14
2017-08-31T15:52:46.022Z,95373.45
2017-08-31T15:55:13.595Z,95358.36
2017-08-31T15:57:41.193Z,95363.55
2017-08-31T16:00:10.223Z,95363.05
2017-08-31T16:02:37.752Z,95360.45
2017-08-31T16:05:05.528Z,95362.77
2017-08-31T16:07:33.980Z,95360.30
2017-08-31T16:10:01.528Z,95370.03
2017-08-31T16:12:29.808Z,95363.72
2017-08-31T16:14:57.432Z,95364.39
2017-08-31T16:17:25.197Z,95367.28
2017-08-31T16:19:52.856Z,95365.92
2017-08-31T16:22:20.449Z,95362.31
2017-08-31T16:24:48.211Z,95370.33
2017-08-31T16:27:15.967Z,95373.59
2017-08-31T16:29:43.764Z,95373.77
2017-08-31T16:32:11.348Z,95373.19
2017-08-31T16:34:40.616Z,95372.77
2017-08-31T16:37:08.181Z,95372.53
2017-08-31T16:39:35.945Z,95373.68
2017-08-31T16:42:03.483Z,95373.41
2017-08-31T16:44:32.527Z,95371.19
2017-08-31T16:47:00.317Z,95375.22
2017-08-31T16:49:27.860Z,95378.44
2017-08-31T16:51:55.744Z,95382.73
2017-08-31T16:54:23.978Z,95384.05
2017-08-31T16:56:52.559Z,95385.26
2017-08-31T16:59:20.125Z,95390.53
2017-08-31T17:01:48.661Z,95387.02
2017-08-31T17:04:16.222Z,95388.39
2017-08-31T17:06:43.741Z,95395.68
2017-08-31T17:09:11.450Z,95391.36
2017-08-31T17:11:39.149Z,95394.92
2017-08-31T17:14:06.693Z,95394.10
2017-08-31T17:16:34.650Z,95389.33
2017-08-31T17:19:02.458Z,95400.62
2017-08-31T17:21:30.219Z,95397.77
2017-08-31T17:23:57.796Z,95396.33
2017-08-31T17:26:25.389Z,95397.48
2017-08-31T17:28:53.760Z,95395.06
2017-08-31T17:31:21.365Z,95391.60
2017-08-31T17:33:49.231Z,95400.09
2017-08-31T17:36:16.773Z,95399.70
2017-08-31T17:38:44.382Z,95400.26
2017-08-31T17:41:11.913Z,95397.87
2017-08-31T17:43:39.442Z,95403.55
2017-08-31T17:46:07.048Z,95404.09
2017-08-31T17:48:34.818Z,95415.41
2017-08-31T17:51:02.364Z,95415.39
2017-08-31T17:53:34.319Z,95421.31
2017-08-31T17:56:02.072Z,95424.47
2017-08-31T17:58:32.376Z,95421.42
2017-08-31T18:01:00.060Z,95428.87
2017-08-31T18:03:27.918Z,95421.85
2017-08-31T18:05:55.659Z,95432.70
2017-08-31T18:11:21.191Z,95447.66
2017-08-31T18:13:59.247Z,95455.02
2017-08-31T18:16:27.537Z,95454.44
2017-08-31T18:18:55.085Z,95464.22
2017-08-31T18:21:22.606Z,95472.73
2017-08-31T18:23:50.148Z,95463.56
2017-08-31T18:26:18.443Z,95479.74
2017-08-31T18:28:47.401Z,95478.41
2017-08-31T18:31:15.976Z,95483.77
2017-08-31T18:33:46.872Z,95488.47
2017-08-31T18:36:14.381Z,95488.08
2017-08-31T18:38:41.994Z,95486.83
2017-08-31T18:41:10.244Z,95483.66
2017-08-31T18:43:38.263Z,95484.30
2017-08-31T18:46:05.853Z,95483.59
2017-08-31T18:48:34.908Z,95468.17
2017-08-31T18:51:02.509Z,95478.88
2017-08-31T18:53:30.081Z,95478.67
2017-08-31T18:55:57.881Z,95474.48
2017-08-31T18:58:25.433Z,95482.19
2017-08-31T19:00:53.100Z,95491.19
2017-08-31T19:03:20.622Z,95486.36
2017-08-31T19:05:48.141Z,95488.77
2017-08-31T19:08:16.680Z,95499.78
2017-08-31T19:10:44.199Z,95495.25
2017-08-31T19:13:11.786Z,95500.97
2017-08-31T19:15:39.347Z,95499.03
2017-08-31T19:18:06.865Z,95497.94
2017-08-31T19:20:34.758Z,95499.97
2017-08-31T19:23:02.349Z,95496.98
2017-08-31T19:25:29.874Z,95505.24
2017-08-31T19:27:57.409Z,95511.77
2017-08-31T19:30:25.877Z,95512.78
2017-08-31T19:32:53.404Z,95512.77
2017-08-31T19:35:20.950Z,95510.66
2017-08-31T19:37:48.520Z,95512.64
2017-08-31T19:40:16.137Z,95507.13
2017-08-31T19:42:43.874Z,95510.83
2017-08-31T19:45:11.465Z,95513.22
2017-08-31T19:47:39.107Z,95513.99
2017-08-31T19:50:07.390Z,95513.79
2017-08-31T19:52:34.978Z,95515.78
2017-08-31T19:55:02.521Z,95523.03
2017-08-31T19:57:30.094Z,95513.59
2017-08-31T19:59:57.671Z,95520.70
2017-08-31T20:02:25.281Z,95512.65
2017-08-31T20:04:52.847Z,95524.45
2017-08-31T20:07:20.410Z,95517.22
2017-08-31T20:09:48.038Z,95513.66
2017-08-31T20:12:15.563Z,95522.31
2017-08-31T20:14:43.099Z,95519.36
2017-08-31T20:17:10.691Z,95528.59
2017-08-31T20:19:38.316Z,95521.92
2017-08-31T20:22:05.861Z,95523.30
2017-08-31T20:24:33.442Z,95521.55
2017-08-31T20:27:00.995Z,95521.36
2017-08-31T20:29:28.815Z,95516.25
2017-08-31T20:31:56.402Z,95520.98
2017-08-31T20:34:23.920Z,95513.52
2017-08-31T20:36:51.445Z,95513.13
2017-08-31T20:41:53.119Z,95510.02
2017-08-31T20:44:20.672Z,95508.64
2017-08-31T20:46:49.709Z,95509.23
2017-08-31T20:49:21.851Z,95507.69
2017-08-31T20:51:49.362Z,95520.19
2017-08-31T20:57:54.453Z,95515.11
2017-08-31T21:00:49.475Z,95513.34
2017-08-31T21:03:17.213Z,95507.84
2017-08-31T21:05:47.212Z,95510.39
2017-08-31T21:08:14.727Z,95507.86
2017-08-31T21:10:42.237Z,95511.98
2017-08-31T21:13:09.781Z,95515.92
2017-08-31T21:15:37.282Z,95507.67
2017-08-31T21:18:04.817Z,95502.55
2017-08-31T21:20:32.389Z,95503.34
2017-08-31T21:22:59.904Z,95509.80
2017-08-31T21:25:27.448Z,95498.46
2017-08-31T21:27:55.002Z,95505.12
2017-08-31T21:30:22.585Z,95507.85
2017-08-31T21:32:50.110Z,95509.02
2017-08-31T21:35:18.481Z,95516.86
2017-08-31T21:37:46.071Z,95511.16
2017-08-31T21:40:14.888Z,95509.61
2017-08-31T21:42:42.429Z,95512.76
2017-08-31T21:45:09.976Z,95517.84
2017-08-31T21:47:37.483Z,95515.47
2017-08-31T21:50:05.439Z,95515.28
2017-08-31T21:52:33.102Z,95522.34
2017-08-31T21:55:00.621Z,95521.73
2017-08-31T21:57:28.130Z,95526.84
2017-08-31T21:59:55.701Z,95527.18
2017-08-31T22:02:23.248Z,95529.36
2017-08-31T22:04:50.771Z,95539.51
2017-08-31T22:07:18.675Z,95534.42
2017-08-31T22:09:46.219Z,95541.08
2017-08-31T22:12:13.747Z,95535.63
2017-08-31T22:14:41.275Z,95534.42
2017-08-31T22:17:08.856Z,95532.84
2017-08-31T22:19:36.410Z,95529.11
2017-08-31T22:22:03.979Z,95525.98
2017-08-31T22:24:31.537Z,95531.64
2017-08-31T22:26:59.117Z,95522.48
2017-08-31T22:29:26.891Z,95524.06
2017-08-31T22:31:54.785Z,95526.37
2017-08-31T22:34:22.616Z,95528.95
2017-08-31T22:36:50.132Z,95527.78
2017-08-31T22:39:17.685Z,95525.80
2017-08-31T22:41:45.214Z,95527.11
2017-08-31T22:44:12.759Z,95531.97
2017-08-31T22:46:40.335Z,95525.00
2017-08-31T22:49:07.864Z,95521.09
2017-08-31T22:51:35.387Z,95515.81
2017-08-31T22:54:02.992Z,95514.04
2017-08-31T22:56:42.368Z,95519.33
2017-08-31T22:59:09.963Z,95518.56
2017-08-31T23:01:37.538Z,95520.66
2017-08-31T23:04:05.911Z,95517.17
2017-08-31T23:06:33.616Z,95516.80
2017-08-31T23:09:01.224Z,95520.89
2017-08-31T23:11:28.745Z,95519.85
2017-08-31T23:13:56.519Z,95512.03
2017-08-31T23:16:24.441Z,95524.70
2017-08-31T23:18:51.969Z,95513.92
2017-08-31T23:21:19.496Z,95518.59
2017-08-31T23:23:47.367Z,95519.78
2017-08-31T23:26:15.143Z,95518.44
2017-08-31T23:28:42.684Z,95516.67
2017-08-31T23:31:10.248Z,95517.04
2017-08-31T23:33:37.775Z,95516.67
2017-08-31T23:36:05.545Z,95517.44
2017-08-31T23:38:33.100Z,95510.23
2017-08-31T23:41:00.614Z,95518.22
2017-08-31T23:43:28.135Z,95510.22
2017-08-31T23:45:56.611Z,95506.94
2017-08-31T23:48:24.131Z,95500.88
2017-08-31T23:50:51.888Z,95500.16
2017-08-31T23:53:19.460Z,95502.90
2017-08-31T23:55:47.004Z,95509.07
2017-08-31T23:58:14.598Z,95506.34
